LOWILOWS

Guest
Details From LOWI - Innsbruck Kranebitten
To LOWS - Salzburg Maxglan
Flight Number -
Tags generated
Created
Modified
Stats Distance 75 nm / 138 km
Max Altitude 3,800 ft / 1,158 m
Waypoints 3
Social Downloads 9
Likes 0
Share VATSIM

Download

Looking for another format? Having issues loading an existing format? Contact us
Advertisement - Login to hide

Notes

Basic altitude profile: - Ascent Rate: 2500ft/min - Ascent Speed: 250kts - Cruise Altitude: 35000ft - Cruise Speed: 420kts - Descent Rate: 1500ft/min - Descent Speed: 250kts

Route

LOWI LOMRO LOWS

ID Type Via Altitude Latitude Longitude Leg Dist Tot Dist Heading (true) Name
O LOWI APT - 0 ft / 0 m 47.26023˚ 11.34397˚ - 0 nm - Innsbruck Kranebitten
LOMRO FIX - 3,800 ft / 1,158 m 47.66667˚ 12.59694˚ 56 nm 56 nm 64° / 65° -
O LOWS APT - 0 ft / 0 m 47.79333˚ 13.00433˚ 18 nm 74 nm 65° / 65° Salzburg Maxglan

Altitude Profile

Advertisement - Login to hide

LOWI

Details ICAO LOWI (INN)
Name Innsbruck Kranebitten
Region Austria
Timezone Europe/Vienna (UTC+1.0)
Stats Elevation 1,906 ft / 581 m (AMSL)
Location 47.260226° 11.343967°
Runways 1
Magnetic Variation 3.020° E

METAR

LOWI 181420Z VRB01KT 9999 FEW015 SCT050 BKN065 M02/M06 Q1023 NOSIG

Decode

TAF

TAF LOWI 181115Z 1812/1912 27005KT 9999 SCT040 BKN070 TXM02/1912Z TNM04/1906Z TEMPO 1812/1815 4000 -SN BR SCT010 BKN030 BECMG 1815/1817 08004KT SCT010 PROB30 1817/1909 3000 BR BKN010

Decode

Departure Runways

ID Width Length Bearing (true) Bearing (mag) Surface Threshold Offset Overrun Length
08 148 ft / 45 m 6,545 ft / 1,995 m 81.02° 78.00° Asphalt 338 ft / 103 m 0 ft / 0 m
26 148 ft / 45 m 6,545 ft / 1,995 m 261.04° 258.02° Asphalt 0 ft / 0 m 0 ft / 0 m

LOWS

Details ICAO LOWS (SZG)
Name Salzburg Maxglan
Region Austria
Timezone Europe/Vienna (UTC+1.0)
Stats Elevation 1,411 ft / 430 m (AMSL)
Location 47.793333° 13.004333°
Runways 1
Magnetic Variation 3.429° E

METAR

LOWS 181420Z 10005KT 9999 FEW040 BKN060 01/M04 Q1023 NOSIG

Decode

TAF

TAF LOWS 181115Z 1812/1912 15005KT 9999 FEW050 BKN060 TX02/1813Z TNM03/1903Z TEMPO 1908/1912 SCT060

Decode

Destination Runways

ID Width Length Bearing (true) Bearing (mag) Surface Threshold Offset Overrun Length
16 148 ft / 45 m 9,024 ft / 2,751 m 157.08° 153.65° Concrete 656 ft / 200 m 0 ft / 0 m
34 148 ft / 45 m 9,024 ft / 2,751 m 337.09° 333.66° Concrete 787 ft / 240 m 0 ft / 0 m

Approach Navaids

Runway Type Ident Frequency Range Bearing (true) Bearing (mag) Slope Elevation
16 Localiser OES 109.90 MHz 18 nm / 33 km 157.53° 154.11° - 1,411 ft / 430 m (AMSL)
16 Glidescope OES 109.90 MHz 10 nm / 19 km 157.09° 153.66° 3.00° 1,446 ft / 441 m (AMSL)
16 DME OES 109.90 MHz 18 nm / 33 km - - - 1,446 ft / 441 m (AMSL)

Popular Alternatives